Time;durP1;ratioP1;P1;durP2;ratioP2;P2;SDS_P1;SDS_P2;PMS_P1;PMS_P2;Temp;Humidity;BMP_temperature;BMP_pressure;BME280_temperature;BME280_humidity;BME280_pressure;Samples;Min_cycle;Max_cycle;Signal;HPM_P1;HPM_P2
2021/12/29 00:00:51;;;;;;;42.63;4.40;;;13.00;99.90;;;;;;5036005;28;20550;-81
2021/12/29 00:03:17;;;;;;;36.27;5.13;;;13.00;99.90;;;;;;5035807;28;20382;-82
2021/12/29 00:05:43;;;;;;;37.00;4.63;;;13.00;99.90;;;;;;5035893;28;20104;-82
2021/12/29 00:08:09;;;;;;;38.60;5.00;;;13.00;99.90;;;;;;5035962;28;20269;-81
2021/12/29 00:10:36;;;;;;;27.87;4.73;;;13.10;99.90;;;;;;5036583;28;20052;-81
2021/12/29 00:13:04;;;;;;;28.58;4.40;;;13.10;99.90;;;;;;5036189;28;20338;-81
2021/12/29 00:15:31;;;;;;;37.40;4.47;;;13.20;99.90;;;;;;5036270;28;20033;-81
2021/12/29 00:17:58;;;;;;;32.03;4.53;;;13.20;99.90;;;;;;5036472;28;20070;-80
2021/12/29 00:20:30;;;;;;;35.45;4.63;;;13.20;99.90;;;;;;5036091;28;20029;-81
2021/12/29 00:22:58;;;;;;;31.40;4.45;;;13.20;99.90;;;;;;5036260;28;20162;-81
2021/12/29 00:25:25;;;;;;;33.80;5.38;;;13.20;99.90;;;;;;5036569;28;20063;-80
2021/12/29 00:27:54;;;;;;;29.33;4.90;;;13.20;99.90;;;;;;5036185;28;20028;-81
2021/12/29 00:30:21;;;;;;;29.23;4.28;;;13.20;99.90;;;;;;5035962;28;20021;-80
2021/12/29 00:32:47;;;;;;;27.90;4.18;;;13.30;99.90;;;;;;5017738;28;20124;-81
2021/12/29 00:35:14;;;;;;;42.10;4.80;;;13.20;99.90;;;;;;5036327;28;20041;-80
2021/12/29 00:37:41;;;;;;;30.65;4.70;;;13.30;99.90;;;;;;5035593;28;20025;-80
2021/12/29 00:40:08;;;;;;;;;;;13.30;99.90;;;;;;5036809;28;20100;-81
2021/12/29 00:42:35;;;;;;;31.95;4.88;;;13.30;99.90;;;;;;5035888;28;19905;-80
2021/12/29 00:45:01;;;;;;;24.40;4.22;;;13.30;99.90;;;;;;5036367;28;20144;-81
2021/12/29 00:47:32;;;;;;;40.08;4.95;;;13.30;99.90;;;;;;5036021;28;20025;-80
2021/12/29 00:49:59;;;;;;;33.13;4.88;;;13.30;99.90;;;;;;5017753;28;20021;-81
2021/12/29 00:52:25;;;;;;;36.92;4.28;;;13.30;99.90;;;;;;5017126;28;20033;-80
2021/12/29 00:54:51;;;;;;;27.00;5.30;;;13.20;99.90;;;;;;5035429;28;20445;-81
2021/12/29 00:57:17;;;;;;;31.27;4.72;;;13.20;99.90;;;;;;5035077;28;20589;-81
2021/12/29 00:59:45;;;;;;;40.90;5.20;;;13.20;99.90;;;;;;5035649;28;20040;-80
2021/12/29 01:02:24;;;;;;;28.50;4.53;;;13.20;99.90;;;;;;5017808;28;20021;-81
2021/12/29 01:04:50;;;;;;;32.60;4.28;;;13.20;99.90;;;;;;5035081;28;20040;-81
2021/12/29 01:07:16;;;;;;;30.67;4.65;;;13.20;99.90;;;;;;5034788;28;20071;-80
2021/12/29 01:09:44;;;;;;;30.40;4.43;;;13.20;99.90;;;;;;5034850;28;20466;-80
2021/12/29 01:12:12;;;;;;;30.15;4.68;;;13.20;99.90;;;;;;5035023;28;20029;-81
2021/12/29 01:14:43;;;;;;;27.67;4.13;;;13.20;99.90;;;;;;5035344;28;20026;-80
2021/12/29 01:17:09;;;;;;;33.05;4.38;;;13.10;99.90;;;;;;5034956;28;20211;-81
2021/12/29 01:19:35;;;;;;;29.52;4.40;;;13.10;99.90;;;;;;5034996;28;20040;-81
2021/12/29 01:22:03;;;;;;;34.17;6.80;;;13.10;99.90;;;;;;5034756;28;20025;-81
2021/12/29 01:24:31;;;;;;;28.58;3.78;;;13.10;99.90;;;;;;5034799;28;20271;-80
2021/12/29 01:26:58;;;;;;;28.95;4.35;;;13.00;99.90;;;;;;5035387;28;20041;-81
2021/12/29 01:29:28;;;;;;;30.67;4.68;;;13.00;99.90;;;;;;5034472;28;20021;-80
2021/12/29 01:31:55;;;;;;;34.03;4.80;;;13.00;99.90;;;;;;5034084;28;20033;-80
2021/12/29 01:34:21;;;;;;;;;;;13.00;99.90;;;;;;5034738;28;20064;-77
2021/12/29 01:36:47;;;;;;;28.88;4.35;;;13.10;99.90;;;;;;5034465;28;20361;-81
2021/12/29 01:39:16;;;;;;;29.10;4.03;;;13.20;99.90;;;;;;5016035;28;20040;-80
2021/12/29 01:41:44;;;;;;;29.85;4.63;;;13.20;99.90;;;;;;5034286;28;20267;-81
2021/12/29 01:44:11;;;;;;;30.10;3.55;;;13.20;99.90;;;;;;5034106;28;20164;-81
2021/12/29 01:46:39;;;;;;;31.92;4.30;;;13.20;99.90;;;;;;5034108;28;20033;-80
2021/12/29 01:49:06;;;;;;;36.70;5.07;;;13.20;99.90;;;;;;5034260;28;20026;-80
2021/12/29 01:51:32;;;;;;;29.50;4.95;;;13.20;99.90;;;;;;5033843;28;20026;-80
2021/12/29 01:54:15;;;;;;;35.83;4.85;;;13.20;99.90;;;;;;5016072;28;20045;-80
2021/12/29 01:56:44;;;;;;;34.53;4.47;;;13.10;99.90;;;;;;5033355;28;20034;-80
2021/12/29 01:59:11;;;;;;;30.63;4.68;;;13.10;99.90;;;;;;5034018;28;20116;-81
2021/12/29 02:01:37;;;;;;;26.65;4.63;;;13.00;99.90;;;;;;5034008;28;20026;-80
2021/12/29 02:04:03;;;;;;;27.87;3.93;;;13.00;99.90;;;;;;5034154;28;20028;-79
2021/12/29 02:06:29;;;;;;;26.77;3.57;;;12.90;99.90;;;;;;5016016;28;20029;-81
2021/12/29 02:08:57;;;;;;;29.20;4.35;;;12.90;99.90;;;;;;5033362;28;20302;-80
2021/12/29 02:11:29;;;;;;;30.30;4.07;;;12.90;99.90;;;;;;5034016;28;20430;-81
2021/12/29 02:14:00;;;;;;;22.05;3.53;;;12.90;99.90;;;;;;5033462;28;20049;-80
2021/12/29 02:16:27;;;;;;;35.00;4.95;;;12.90;99.90;;;;;;5033529;28;20025;-81
2021/12/29 02:19:02;;;;;;;29.08;4.88;;;13.10;99.90;;;;;;5033622;28;20080;-81
2021/12/29 02:21:30;;;;;;;35.30;5.57;;;13.20;99.90;;;;;;5033695;28;20120;-80
2021/12/29 02:26:38;;;;;;;26.83;4.07;;;13.30;99.90;;;;;;5033264;28;20478;-80
2021/12/29 02:29:06;;;;;;;29.52;4.35;;;13.30;99.90;;;;;;5015561;28;20394;-80
2021/12/29 02:31:33;;;;;;;29.50;3.97;;;13.30;99.90;;;;;;5033115;28;20032;-80
2021/12/29 02:34:00;;;;;;;33.30;4.78;;;13.30;99.90;;;;;;5032881;28;20116;-80
2021/12/29 02:36:27;;;;;;;;;;;13.30;99.90;;;;;;5033760;28;20355;-80
2021/12/29 02:38:55;;;;;;;32.22;4.47;;;13.20;99.90;;;;;;5033081;28;19996;-81
2021/12/29 02:41:53;;;;;;;35.53;4.78;;;13.20;99.90;;;;;;5032855;28;20032;-81
2021/12/29 02:44:28;;;;;;;33.20;4.30;;;13.20;99.90;;;;;;5032883;28;20037;-80
2021/12/29 02:46:57;;;;;;;47.30;6.00;;;13.10;99.90;;;;;;5033270;28;20095;-80
2021/12/29 02:49:24;;;;;;;35.50;4.70;;;13.10;99.90;;;;;;5015433;28;20056;-81
2021/12/29 02:51:51;;;;;;;34.17;3.95;;;13.10;99.90;;;;;;5033853;28;20076;-80
2021/12/29 02:54:18;;;;;;;35.85;4.32;;;13.10;99.90;;;;;;5033237;28;20033;-81
2021/12/29 02:56:52;;;;;;;21.13;3.88;;;13.20;99.90;;;;;;5033342;28;20107;-81
2021/12/29 02:59:18;;;;;;;31.58;5.38;;;13.20;99.90;;;;;;5033583;28;20507;-80
2021/12/29 03:01:44;;;;;;;21.97;3.57;;;13.20;99.90;;;;;;5033683;28;20025;-81
2021/12/29 03:04:11;;;;;;;28.83;4.22;;;13.20;99.90;;;;;;5033091;28;20314;-80
2021/12/29 03:06:38;;;;;;;23.35;3.63;;;13.20;99.90;;;;;;5032972;28;20025;-80
2021/12/29 03:09:08;;;;;;;24.00;3.47;;;13.20;99.90;;;;;;5032552;28;20032;-80
2021/12/29 03:11:34;;;;;;;25.95;3.72;;;13.30;99.90;;;;;;5032669;28;20026;-80
2021/12/29 03:14:01;;;;;;;23.08;3.60;;;13.40;99.90;;;;;;5014738;28;20211;-80
2021/12/29 03:16:27;;;;;;;30.10;3.63;;;13.30;99.90;;;;;;5032945;28;20021;-81
2021/12/29 03:18:53;;;;;;;29.88;3.78;;;13.30;99.90;;;;;;5033514;28;20047;-80
2021/12/29 03:21:19;;;;;;;25.38;3.70;;;13.20;99.90;;;;;;5033554;28;20377;-80
2021/12/29 03:23:48;;;;;;;22.40;3.20;;;13.20;99.90;;;;;;5033242;28;20056;-80
2021/12/29 03:26:14;;;;;;;20.45;3.47;;;13.20;99.90;;;;;;5032911;28;20053;-81
2021/12/29 03:28:40;;;;;;;27.07;3.77;;;13.20;99.90;;;;;;5033492;28;20075;-81
2021/12/29 03:31:11;;;;;;;24.35;3.45;;;13.20;99.90;;;;;;5032835;28;20442;-81
2021/12/29 03:33:37;;;;;;;22.48;3.65;;;13.20;99.90;;;;;;5033121;28;20029;-81
2021/12/29 03:36:05;;;;;;;25.17;4.70;;;13.10;99.90;;;;;;5033195;28;20025;-80
2021/12/29 03:38:34;;;;;;;25.30;3.53;;;13.10;99.90;;;;;;5032804;28;20049;-81
2021/12/29 03:41:01;;;;;;;18.65;3.42;;;13.20;99.90;;;;;;5033176;28;20164;-81
2021/12/29 03:43:29;;;;;;;22.50;2.95;;;13.20;99.90;;;;;;5032686;28;20022;-81
2021/12/29 03:45:56;;;;;;;20.42;3.47;;;13.10;99.90;;;;;;5032623;28;20076;-80
2021/12/29 03:48:23;;;;;;;19.55;3.47;;;13.00;99.90;;;;;;5032839;28;20052;-81
2021/12/29 03:50:49;;;;;;;18.60;3.17;;;13.10;99.90;;;;;;5032648;28;20017;-81
2021/12/29 03:53:16;;;;;;;27.87;4.03;;;13.10;99.90;;;;;;5032969;28;20037;-81
2021/12/29 03:55:46;;;;;;;20.23;3.65;;;13.00;99.90;;;;;;5032753;28;20256;-80
2021/12/29 03:58:12;;;;;;;20.55;3.50;;;12.90;99.90;;;;;;5032314;28;20494;-81
2021/12/29 04:00:39;;;;;;;20.67;3.20;;;12.90;99.90;;;;;;5033125;28;20022;-81
2021/12/29 04:03:05;;;;;;;16.58;2.85;;;12.90;99.90;;;;;;5032509;28;20736;-81
2021/12/29 04:05:32;;;;;;;26.38;3.22;;;12.90;99.90;;;;;;5032682;28;20045;-81
2021/12/29 04:07:59;;;;;;;22.55;2.92;;;12.80;99.90;;;;;;5014438;28;20033;-81
2021/12/29 04:10:25;;;;;;;27.65;3.60;;;12.80;99.90;;;;;;5047287;28;20065;-80
2021/12/29 04:12:52;;;;;;;20.00;2.92;;;12.80;99.90;;;;;;5032406;28;20025;-81
2021/12/29 04:15:18;;;;;;;23.00;3.67;;;12.80;99.90;;;;;;5032507;28;20374;-80
2021/12/29 04:17:46;;;;;;;22.27;3.13;;;12.70;99.90;;;;;;5032043;28;20026;-81
2021/12/29 04:23:04;;;;;;;19.35;3.33;;;12.70;99.90;;;;;;5035751;28;20041;-81
2021/12/29 04:25:34;;;;;;;18.77;3.45;;;12.70;99.90;;;;;;5036029;28;20033;-81
2021/12/29 04:28:01;;;;;;;18.90;3.60;;;12.70;99.90;;;;;;5035679;28;20041;-81
2021/12/29 04:30:28;;;;;;;22.77;3.10;;;12.70;99.90;;;;;;5036032;28;20022;-81
2021/12/29 04:32:54;;;;;;;24.95;3.80;;;12.60;99.90;;;;;;5035609;28;20038;-81
2021/12/29 04:35:21;;;;;;;17.50;2.73;;;12.60;99.90;;;;;;5035236;28;20357;-81
2021/12/29 04:37:48;;;;;;;28.88;3.95;;;12.60;99.90;;;;;;5035929;28;20608;-80
2021/12/29 04:40:15;;;;;;;18.73;3.30;;;12.60;99.90;;;;;;5035653;28;20437;-81
2021/12/29 04:42:41;;;;;;;20.50;3.00;;;12.60;99.90;;;;;;5035213;28;20113;-81
2021/12/29 04:45:07;;;;;;;19.33;2.75;;;12.60;99.90;;;;;;5035240;28;20052;-81
2021/12/29 04:47:38;;;;;;;19.48;3.33;;;12.60;99.90;;;;;;5034655;28;20111;-81
2021/12/29 04:50:13;;;;;;;21.50;2.97;;;12.60;99.90;;;;;;5033207;28;20072;-81
2021/12/29 04:52:39;;;;;;;19.80;3.15;;;12.60;99.90;;;;;;5017054;28;20037;-80
2021/12/29 04:55:07;;;;;;;17.98;3.40;;;12.70;99.90;;;;;;5035283;28;20081;-80
2021/12/29 04:57:34;;;;;;;20.88;3.50;;;12.70;99.90;;;;;;5034979;28;20026;-80
2021/12/29 05:00:00;;;;;;;16.80;3.40;;;12.80;99.90;;;;;;5033033;28;20068;-81
2021/12/29 05:02:26;;;;;;;23.63;3.23;;;12.70;99.90;;;;;;5034922;28;20484;-80
2021/12/29 05:05:02;;;;;;;23.03;4.00;;;12.80;99.90;;;;;;5035099;28;20065;-81
2021/12/29 05:10:12;;;;;;;33.25;4.13;;;12.80;99.90;;;;;;5034566;28;20052;-81
2021/12/29 05:12:38;;;;;;;22.37;2.77;;;12.80;99.90;;;;;;5034453;28;20359;-81
2021/12/29 05:15:05;;;;;;;19.80;3.63;;;12.80;99.90;;;;;;5034998;28;20347;-80
2021/12/29 05:17:31;;;;;;;19.95;3.35;;;12.80;99.90;;;;;;5016743;28;20029;-81
2021/12/29 05:19:57;;;;;;;20.10;3.40;;;12.80;99.90;;;;;;5034678;28;20022;-80
2021/12/29 05:22:23;;;;;;;23.30;3.83;;;12.80;99.90;;;;;;5034492;28;20056;-81
2021/12/29 05:24:53;;;;;;;18.23;3.67;;;12.80;99.90;;;;;;5034414;28;20032;-80
2021/12/29 05:27:19;;;;;;;24.80;3.30;;;12.90;99.90;;;;;;5034433;28;20108;-80
2021/12/29 05:29:45;;;;;;;21.10;3.67;;;12.90;99.90;;;;;;5033936;28;20022;-80
2021/12/29 05:32:11;;;;;;;25.73;3.10;;;12.90;99.90;;;;;;5034174;28;20029;-82
2021/12/29 05:34:37;;;;;;;16.70;2.93;;;13.00;99.90;;;;;;5034392;28;20044;-80
2021/12/29 05:37:03;;;;;;;24.53;3.63;;;12.90;99.90;;;;;;5034138;28;20292;-82
2021/12/29 05:39:29;;;;;;;24.88;3.70;;;12.90;99.90;;;;;;5033859;28;20040;-81
2021/12/29 05:41:55;;;;;;;30.55;3.97;;;12.90;99.90;;;;;;5034348;28;20022;-81
2021/12/29 05:44:21;;;;;;;25.67;3.67;;;13.00;99.90;;;;;;5034260;28;20024;-80
2021/12/29 05:46:48;;;;;;;22.10;3.70;;;13.00;99.90;;;;;;5034351;28;20075;-81
2021/12/29 05:49:14;;;;;;;28.57;4.20;;;13.00;99.90;;;;;;5034741;28;20260;-80
2021/12/29 05:51:40;;;;;;;28.83;3.47;;;13.00;99.90;;;;;;5034523;28;20256;-81
2021/12/29 05:54:06;;;;;;;26.30;3.97;;;13.00;99.90;;;;;;5034361;28;20294;-81
2021/12/29 05:56:32;;;;;;;29.90;3.57;;;13.00;99.90;;;;;;5034764;28;20109;-80
2021/12/29 05:59:01;;;;;;;33.47;3.88;;;13.00;99.90;;;;;;5016698;28;20021;-80
2021/12/29 06:01:28;;;;;;;23.02;3.50;;;13.10;99.90;;;;;;5034374;28;20044;-80
2021/12/29 06:03:55;;;;;;;24.35;3.85;;;13.10;99.90;;;;;;5033572;28;20034;-80
2021/12/29 06:06:21;;;;;;;25.75;3.85;;;13.20;99.90;;;;;;5034215;28;20017;-80
2021/12/29 06:08:47;;;;;;;28.40;3.15;;;13.20;99.90;;;;;;5033750;28;20343;-78
2021/12/29 06:11:13;;;;;;;23.07;3.60;;;13.20;99.90;;;;;;5033763;28;20056;-80
2021/12/29 06:13:40;;;;;;;28.60;3.92;;;13.20;99.90;;;;;;5033428;28;20363;-79
2021/12/29 06:16:06;;;;;;;24.88;3.08;;;13.20;99.90;;;;;;5033912;28;20064;-80
2021/12/29 06:18:50;;;;;;;19.20;2.80;;;13.20;99.90;;;;;;5033489;28;20026;-79
2021/12/29 06:21:16;;;;;;;24.23;3.53;;;13.10;99.90;;;;;;5033655;28;20256;-79
2021/12/29 06:23:47;;;;;;;22.27;3.85;;;13.10;99.90;;;;;;5033252;28;20354;-79
2021/12/29 06:26:14;;;;;;;22.42;3.28;;;13.10;99.90;;;;;;5032819;28;20091;-78
2021/12/29 06:28:40;;;;;;;;;;;13.20;99.90;;;;;;5034233;28;20056;-80
2021/12/29 06:31:07;;;;;;;20.63;2.90;;;13.10;99.90;;;;;;5033622;28;20276;-79
2021/12/29 06:33:33;;;;;;;27.67;3.70;;;13.10;99.90;;;;;;5015207;28;20032;-79
2021/12/29 06:35:59;;;;;;;23.95;2.95;;;13.10;99.90;;;;;;5033435;28;20026;-79
2021/12/29 06:38:25;;;;;;;29.70;3.97;;;13.10;99.90;;;;;;5033265;28;20030;-80
2021/12/29 06:40:53;;;;;;;23.67;3.83;;;13.20;99.90;;;;;;5033002;28;20343;-79
2021/12/29 06:43:19;;;;;;;20.67;3.88;;;13.20;99.90;;;;;;5033043;28;20029;-79
2021/12/29 06:45:45;;;;;;;21.03;2.97;;;13.20;99.90;;;;;;5032972;28;20502;-79
2021/12/29 06:48:11;;;;;;;25.92;3.40;;;13.30;99.90;;;;;;5033118;28;20108;-79
2021/12/29 06:50:37;;;;;;;20.40;4.30;;;13.40;99.90;;;;;;5033068;28;20037;-79
2021/12/29 06:53:03;;;;;;;26.90;3.95;;;13.40;99.90;;;;;;5032663;28;20076;-78
2021/12/29 06:55:29;;;;;;;29.93;4.50;;;13.50;99.90;;;;;;5032227;28;20096;-78
2021/12/29 06:57:56;;;;;;;32.70;4.20;;;13.60;99.90;;;;;;5032893;28;20123;-78
2021/12/29 07:00:22;;;;;;;32.60;4.13;;;13.70;99.90;;;;;;5033039;28;20363;-79
2021/12/29 07:02:48;;;;;;;39.55;4.78;;;13.70;99.90;;;;;;5032910;28;20363;-79
2021/12/29 07:05:15;;;;;;;32.53;5.23;;;13.80;99.90;;;;;;5014462;28;20516;-78
2021/12/29 07:07:42;;;;;;;27.92;4.13;;;14.00;99.90;;;;;;5032969;28;20365;-77
2021/12/29 07:10:09;;;;;;;29.75;4.00;;;14.30;99.90;;;;;;5032631;28;20075;-78
2021/12/29 07:12:35;;;;;;;40.83;5.72;;;14.60;99.90;;;;;;5032657;28;20112;-78
2021/12/29 07:15:01;;;;;;;29.40;4.07;;;14.80;99.90;;;;;;5032196;28;20064;-78
2021/12/29 07:17:27;;;;;;;33.30;4.63;;;15.00;99.90;;;;;;5031964;28;20478;-79
2021/12/29 07:19:54;;;;;;;37.88;4.78;;;15.00;99.90;;;;;;5032253;28;20025;-78
2021/12/29 07:22:20;;;;;;;36.92;4.90;;;15.30;99.90;;;;;;5031966;28;20100;-78
2021/12/29 07:24:46;;;;;;;28.50;4.57;;;15.50;99.90;;;;;;5031864;28;20414;-78
2021/12/29 07:27:12;;;;;;;37.67;4.30;;;15.90;99.90;;;;;;5032153;28;20021;-78
2021/12/29 07:29:38;;;;;;;32.97;4.83;;;16.40;99.90;;;;;;5032270;28;20339;-78
2021/12/29 07:32:04;;;;;;;31.33;4.90;;;16.80;99.90;;;;;;5032270;28;20291;-78
2021/12/29 07:34:31;;;;;;;34.22;4.75;;;16.80;99.90;;;;;;5031776;28;20030;-73
2021/12/29 07:36:57;;;;;;;36.03;5.88;;;16.90;99.90;;;;;;5031614;28;20351;-74
2021/12/29 07:39:23;;;;;;;34.38;5.82;;;16.80;99.90;;;;;;5031626;28;20029;-74
2021/12/29 07:41:49;;;;;;;38.22;6.35;;;16.80;99.90;;;;;;5031597;28;20051;-74
2021/12/29 07:44:17;;;;;;;33.22;5.57;;;17.40;99.90;;;;;;5032210;28;20029;-72
2021/12/29 07:46:45;;;;;;;34.05;5.63;;;17.40;99.90;;;;;;5031174;28;20029;-75
2021/12/29 07:49:12;;;;;;;33.63;5.80;;;17.00;99.90;;;;;;5031652;28;20033;-73
2021/12/29 07:51:40;;;;;;;39.30;6.25;;;17.10;99.90;;;;;;5013664;28;20055;-72
2021/12/29 07:54:07;;;;;;;31.60;5.25;;;17.30;99.90;;;;;;5034350;28;20105;-72
2021/12/29 07:56:33;;;;;;;34.92;6.28;;;17.50;99.90;;;;;;5035684;28;20018;-73
2021/12/29 07:58:59;;;;;;;30.58;6.05;;;17.70;99.90;;;;;;5035473;28;20380;-73
2021/12/29 08:01:25;;;;;;;31.77;5.13;;;17.70;99.90;;;;;;5035389;28;20071;-73
2021/12/29 08:03:52;;;;;;;41.47;6.32;;;17.50;99.90;;;;;;5035301;28;20112;-73
2021/12/29 08:06:19;;;;;;;32.55;5.65;;;17.30;99.90;;;;;;5017647;28;20022;-73
2021/12/29 08:08:45;;;;;;;;;;;17.20;99.90;;;;;;5035845;28;20508;-72
2021/12/29 08:11:12;;;;;;;33.13;4.97;;;17.00;99.90;;;;;;5035263;28;19917;-73
2021/12/29 08:13:38;;;;;;;;;;;16.80;99.90;;;;;;5035637;28;20116;-72
2021/12/29 08:16:05;;;;;;;40.50;6.10;;;16.90;99.90;;;;;;5035218;28;19958;-72
2021/12/29 08:18:31;;;;;;;;;;;17.00;99.90;;;;;;5036022;28;20025;-73
2021/12/29 08:20:57;;;;;;;30.85;6.15;;;17.40;99.90;;;;;;5035480;28;19912;-73
2021/12/29 08:23:23;;;;;;;29.15;5.00;;;17.60;99.90;;;;;;5035472;28;20049;-72
2021/12/29 08:25:49;;;;;;;35.92;5.40;;;17.80;99.90;;;;;;5035548;28;20028;-76
2021/12/29 08:28:15;;;;;;;34.08;4.75;;;18.00;99.90;;;;;;5017195;28;20438;-76
2021/12/29 08:30:41;;;;;;;36.50;5.50;;;18.20;99.90;;;;;;5035277;28;20376;-77
2021/12/29 08:33:08;;;;;;;32.17;5.25;;;18.20;99.90;;;;;;5034873;28;20033;-73
2021/12/29 08:35:34;;;;;;;35.00;5.22;;;18.20;99.90;;;;;;5034931;28;20090;-73
2021/12/29 08:38:00;;;;;;;27.30;4.90;;;18.10;99.90;;;;;;5035283;28;20032;-74
2021/12/29 08:40:26;;;;;;;31.45;5.22;;;17.90;99.90;;;;;;5035131;28;20485;-71
2021/12/29 08:42:54;;;;;;;28.40;4.68;;;18.00;99.90;;;;;;5034850;28;20112;-71
2021/12/29 08:45:22;;;;;;;31.85;5.00;;;18.10;99.90;;;;;;5034310;28;20419;-71
2021/12/29 08:47:48;;;;;;;33.72;5.38;;;18.00;99.90;;;;;;5034230;28;20057;-71
2021/12/29 08:50:17;;;;;;;31.92;5.47;;;18.10;99.90;;;;;;5034549;28;20034;-73
2021/12/29 08:52:43;;;;;;;33.53;4.53;;;18.00;99.90;;;;;;5034816;28;20033;-73
2021/12/29 08:55:11;;;;;;;29.40;4.70;;;18.10;99.90;;;;;;5034745;28;20040;-73
2021/12/29 08:57:38;;;;;;;29.65;4.72;;;18.20;99.90;;;;;;5034627;28;20039;-72
2021/12/29 09:00:07;;;;;;;27.30;4.78;;;18.20;99.90;;;;;;5034409;28;20465;-67
2021/12/29 09:02:33;;;;;;;27.67;4.80;;;18.30;99.90;;;;;;5034514;28;20091;-69
2021/12/29 09:04:59;;;;;;;31.73;5.32;;;18.10;99.90;;;;;;5032863;28;20026;-73
2021/12/29 09:07:25;;;;;;;27.60;4.78;;;18.10;99.90;;;;;;5034249;28;20223;-73
2021/12/29 09:09:51;;;;;;;29.90;5.18;;;17.90;99.90;;;;;;5033931;28;20446;-74
2021/12/29 09:12:17;;;;;;;28.95;5.03;;;17.90;99.90;;;;;;5034310;28;20446;-73
2021/12/29 09:14:45;;;;;;;28.65;5.25;;;18.00;99.90;;;;;;5034020;28;20047;-74
2021/12/29 09:17:12;;;;;;;29.02;4.63;;;17.90;99.90;;;;;;5034117;28;20022;-73
2021/12/29 09:19:41;;;;;;;29.40;5.22;;;18.00;99.90;;;;;;5034022;28;20060;-73
2021/12/29 09:22:08;;;;;;;29.52;5.18;;;17.80;99.90;;;;;;5034007;28;20470;-73
2021/12/29 09:24:35;;;;;;;33.08;6.20;;;17.90;99.90;;;;;;5033981;28;20026;-73
2021/12/29 09:27:01;;;;;;;28.83;5.40;;;18.10;99.90;;;;;;5033719;28;20104;-73
2021/12/29 09:29:27;;;;;;;32.63;5.25;;;18.20;99.90;;;;;;5033684;28;20105;-73
2021/12/29 09:31:53;;;;;;;39.75;5.82;;;18.60;99.90;;;;;;5033639;28;20029;-74
2021/12/29 09:34:19;;;;;;;33.75;5.30;;;18.70;99.90;;;;;;5033825;28;20159;-74
2021/12/29 09:36:45;;;;;;;37.97;5.00;;;18.40;99.90;;;;;;5033605;28;20036;-74
2021/12/29 09:39:11;;;;;;;32.72;5.65;;;18.50;99.90;;;;;;5033614;28;20045;-75
2021/12/29 09:41:37;;;;;;;41.70;5.50;;;18.60;99.90;;;;;;5033560;28;20584;-75
2021/12/29 09:44:03;;;;;;;36.72;5.28;;;18.50;99.90;;;;;;5033626;28;20386;-74
2021/12/29 09:46:30;;;;;;;36.65;5.07;;;18.40;99.90;;;;;;5033494;28;20021;-74
2021/12/29 09:48:58;;;;;;;27.70;4.95;;;18.30;99.90;;;;;;5033866;28;20450;-74
2021/12/29 09:51:24;;;;;;;34.30;5.03;;;18.30;99.90;;;;;;5033344;28;20505;-74
2021/12/29 09:53:50;;;;;;;32.45;5.38;;;18.30;99.90;;;;;;5033518;28;20041;-74
2021/12/29 09:56:17;;;;;;;35.95;4.93;;;18.50;99.90;;;;;;5033765;28;20105;-74
2021/12/29 09:58:43;;;;;;;34.83;6.03;;;18.70;99.90;;;;;;5033105;28;20048;-73
2021/12/29 10:01:10;;;;;;;29.40;6.03;;;18.80;99.90;;;;;;5033299;28;20362;-73
2021/12/29 10:03:37;;;;;;;35.95;5.53;;;18.50;99.90;;;;;;5033268;28;20401;-73
2021/12/29 10:06:07;;;;;;;27.63;5.03;;;18.40;99.90;;;;;;5033187;28;20373;-73
2021/12/29 10:08:36;;;;;;;30.10;5.30;;;18.40;99.90;;;;;;5033087;28;20507;-74
2021/12/29 10:11:07;;;;;;;27.23;5.35;;;18.40;99.90;;;;;;5015054;28;20393;-74
2021/12/29 10:13:36;;;;;;;29.63;5.40;;;18.40;99.90;;;;;;5033283;28;20069;-74
2021/12/29 10:16:09;;;;;;;35.63;5.63;;;18.30;99.90;;;;;;5032598;28;20021;-75
2021/12/29 10:18:37;;;;;;;32.03;5.57;;;18.00;99.90;;;;;;5033292;28;20033;-74
2021/12/29 10:21:09;;;;;;;30.20;5.63;;;18.00;99.90;;;;;;5033021;28;20112;-73
2021/12/29 10:23:43;;;;;;;24.95;4.53;;;17.90;99.90;;;;;;5032658;28;20100;-73
2021/12/29 10:26:14;;;;;;;33.45;5.28;;;18.00;99.90;;;;;;5033093;28;20030;-73
2021/12/29 10:28:52;;;;;;;25.98;4.90;;;17.90;99.90;;;;;;5033180;28;20132;-72
2021/12/29 10:31:25;;;;;;;33.13;4.95;;;18.00;99.90;;;;;;5032772;28;20079;-73
2021/12/29 10:33:57;;;;;;;27.20;4.93;;;18.00;99.90;;;;;;5032678;28;20052;-73
2021/12/29 10:36:26;;;;;;;25.80;4.30;;;18.10;99.90;;;;;;5032656;28;20053;-72
2021/12/29 10:39:05;;;;;;;25.83;4.32;;;17.80;99.90;;;;;;5032786;28;20029;-72
2021/12/29 10:41:47;;;;;;;24.23;4.53;;;17.90;99.90;;;;;;5032315;28;20105;-72
2021/12/29 10:44:15;;;;;;;28.85;5.15;;;18.40;99.90;;;;;;5032192;28;20474;-73
2021/12/29 10:46:41;;;;;;;22.20;4.30;;;18.40;99.90;;;;;;5031926;28;20168;-73
2021/12/29 10:49:09;;;;;;;26.17;4.95;;;18.50;99.90;;;;;;5013846;28;20087;-73
2021/12/29 10:51:38;;;;;;;23.10;4.45;;;18.40;99.90;;;;;;5031975;28;20029;-73
2021/12/29 10:54:08;;;;;;;23.48;4.63;;;18.30;99.90;;;;;;5032188;28;20034;-73
2021/12/29 10:56:35;;;;;;;23.92;4.60;;;18.10;99.90;;;;;;5032253;28;20028;-73
2021/12/29 10:59:11;;;;;;;;;;;18.40;99.90;;;;;;5032705;28;20453;-72
2021/12/29 11:01:37;;;;;;;;;;;18.70;99.90;;;;;;5032634;28;19905;-72
2021/12/29 11:04:04;;;;;;;21.50;4.57;;;19.00;99.90;;;;;;5031671;28;19925;-73
2021/12/29 11:06:30;;;;;;;26.55;4.78;;;18.60;99.90;;;;;;5031667;28;20389;-73
2021/12/29 11:09:02;;;;;;;24.38;4.32;;;18.50;99.90;;;;;;5031552;28;20022;-73
2021/12/29 11:11:38;;;;;;;21.02;5.20;;;18.70;99.90;;;;;;5046878;28;20091;-73
2021/12/29 11:14:21;;;;;;;25.27;4.28;;;18.20;99.90;;;;;;5031508;28;20120;-73
2021/12/29 11:17:04;;;;;;;27.83;4.07;;;18.10;99.90;;;;;;5032501;28;20097;-74
2021/12/29 11:19:30;;;;;;;30.65;3.95;;;18.40;99.90;;;;;;5032162;28;20029;-73
2021/12/29 11:22:17;;;;;;;20.15;3.40;;;18.40;99.90;;;;;;5031753;28;20171;-74
2021/12/29 11:24:44;;;;;;;25.10;4.30;;;18.10;99.90;;;;;;5031991;28;20040;-73
2021/12/29 11:27:10;;;;;;;20.25;3.33;;;18.20;99.90;;;;;;5031440;28;20030;-74
2021/12/29 11:29:48;;;;;;;23.75;4.25;;;18.60;99.90;;;;;;5030804;28;20105;-74
2021/12/29 11:32:20;;;;;;;24.13;3.97;;;18.90;99.90;;;;;;5031622;28;20053;-71
2021/12/29 11:35:08;;;;;;;18.08;3.53;;;18.90;99.90;;;;;;5031531;28;20043;-72
2021/12/29 11:37:36;;;;;;;21.90;3.88;;;18.80;99.90;;;;;;5031446;28;20394;-71
2021/12/29 11:40:04;;;;;;;19.52;3.58;;;18.90;99.90;;;;;;5031267;28;20036;-72
2021/12/29 11:42:31;;;;;;;23.77;4.00;;;19.20;99.90;;;;;;5013610;28;20022;-72
2021/12/29 11:44:57;;;;;;;21.17;4.00;;;19.30;99.90;;;;;;5031771;28;20041;-74
2021/12/29 11:47:42;;;;;;;22.40;4.13;;;19.50;99.90;;;;;;5032269;28;20022;-73
2021/12/29 11:50:12;;;;;;;22.08;3.58;;;19.60;99.90;;;;;;5032269;28;20041;-74
2021/12/29 11:52:47;;;;;;;28.00;4.32;;;19.70;99.90;;;;;;5013594;28;20429;-73
2021/12/29 11:55:24;;;;;;;19.60;4.03;;;19.60;99.90;;;;;;5031865;28;20147;-74
2021/12/29 11:58:06;;;;;;;25.20;3.78;;;19.70;99.90;;;;;;5013573;28;20032;-74
2021/12/29 12:00:32;;;;;;;25.92;4.03;;;19.70;99.90;;;;;;5013314;28;20035;-74
2021/12/29 12:03:14;;;;;;;22.15;3.58;;;19.80;99.90;;;;;;5013392;28;20032;-75
2021/12/29 12:05:49;;;;;;;22.50;4.00;;;19.30;99.90;;;;;;5012765;28;20032;-73
2021/12/29 12:08:23;;;;;;;19.17;3.88;;;19.40;99.90;;;;;;5030804;28;20091;-74
2021/12/29 12:10:51;;;;;;;22.90;4.25;;;19.10;99.90;;;;;;5013050;28;20136;-73
2021/12/29 12:13:27;;;;;;;31.65;4.25;;;19.10;99.90;;;;;;5031286;28;20041;-73
2021/12/29 12:16:11;;;;;;;19.73;3.88;;;18.80;99.90;;;;;;5031199;28;20076;-73
2021/12/29 12:18:52;;;;;;;28.40;4.88;;;18.80;99.90;;;;;;5030974;28;20128;-73
2021/12/29 12:21:30;;;;;;;26.20;4.40;;;18.90;99.90;;;;;;5031540;28;20480;-73
2021/12/29 12:24:15;;;;;;;26.42;4.07;;;18.70;99.90;;;;;;5030928;28;20126;-73
2021/12/29 12:26:58;;;;;;;27.77;4.60;;;18.80;99.90;;;;;;5031400;28;20018;-72
2021/12/29 12:29:30;;;;;;;25.02;4.60;;;18.80;99.90;;;;;;5030742;28;20351;-73
2021/12/29 12:32:17;;;;;;;23.88;4.85;;;19.10;99.90;;;;;;5012856;28;20025;-72
2021/12/29 12:35:13;;;;;;;30.75;4.85;;;19.20;99.90;;;;;;5030678;28;20034;-73
2021/12/29 12:37:45;;;;;;;24.52;4.43;;;19.40;99.90;;;;;;4970248;28;20411;-74
2021/12/29 12:40:26;;;;;;;23.25;4.55;;;19.30;99.90;;;;;;4972016;28;20031;-73
2021/12/29 12:43:06;;;;;;;22.23;3.90;;;19.50;99.90;;;;;;4973982;28;20328;-73
2021/12/29 12:45:38;;;;;;;22.58;4.28;;;19.80;99.90;;;;;;4973967;28;20472;-72
2021/12/29 12:48:08;;;;;;;22.08;4.65;;;20.30;99.90;;;;;;4973433;28;20071;-73
2021/12/29 12:50:36;;;;;;;19.83;4.03;;;20.50;99.90;;;;;;4973332;28;20030;-72
2021/12/29 12:53:03;;;;;;;23.77;4.85;;;20.40;99.90;;;;;;4973559;28;20043;-73
2021/12/29 12:55:42;;;;;;;22.65;4.40;;;20.50;99.90;;;;;;4973612;28;20174;-73